Gurleyville, Connecticut
Current Conditions -  °F | °C
As of 6:52 AM on Friday 24 Oct 2014 (Local Time) from KIJD Reporting Station
Light Rain Light Rain  
Wind Chill: 50°   Ceiling: 1600
Heat Index: 50°   Visibility: 10mi
Dew Point: 45°   Wind: 10mph
Humidity: 83%   Direction: 320°NW
Pressure: 29.73"   Gusts: NA
Location:  41.8004°N, 72.2476°W
Report Text: KIJD 241052Z AUTO 32009KT 10SM -RA OVC016 10/07 A2973 RMK AO2 RAB07 SLP067 P0000 T01000072
Loading
Personal Weather Stations






























Interactive Weather Map New forecast layout! Learn more

10-Day Weather Forecast

Advertisements
Track Severe Weather on mobile